This is the latest recevied weather packets stored in our database for station/object KQ4UWH. If no packets are shown the sender has not sent any weather packets the latest 10 day(s).
| Time | Temp. | Humidity | Pressure | Rain* | Wind** | Luminosity | Snow |
|---|---|---|---|---|---|---|---|
| 1777836915 | 21.11° C | 34% | 1239.7 hPa | 0 mm | - | 663 W/m² | - |
| 1777836610 | 21.11° C | 34% | 1239.7 hPa | 0 mm | - | 525 W/m² | - |
| 1777836306 | 21.67° C | 36% | 1239.7 hPa | 0 mm | - | 679 W/m² | - |
| 1777836001 | 21.11° C | 35% | 1239.7 hPa | 0 mm | - | 689 W/m² | - |
| 1777835699 | 20.56° C | 34% | 1239.7 hPa | 0 mm | - | 698 W/m² | - |
| 1777835395 | 21.11° C | 31% | 1239.7 hPa | 3.05 mm | - | 697 W/m² | - |
| 1777835093 | 21.11° C | 34% | 1239.7 hPa | 9.65 mm | - | 685 W/m² | - |
| 1777834790 | 20.56° C | 36% | 1239.7 hPa | 7.87 mm | - | 19 W/m² | - |
| 1777834486 | 21.11° C | 33% | 1239.7 hPa | 1.27 mm | - | 711 W/m² | - |
| 1777834186 | 20.56° C | 41% | 1239.7 hPa | 6.1 mm | - | 659 W/m² | - |
| 1777833882 | 20° C | 40% | 1239.7 hPa | 6.1 mm | - | 34 W/m² | - |
| 1777833579 | 20.56° C | 35% | 1239.7 hPa | 0 mm | - | 14 W/m² | - |
| 1777833275 | 20° C | 39% | 1239.7 hPa | 0 mm | - | 30 W/m² | - |
| 1777832972 | 20.56° C | 38% | 1239.7 hPa | 0 mm | - | 691 W/m² | - |
| 1777832671 | 20° C | 37% | 1239.7 hPa | 0 mm | - | 738 W/m² | - |
| 1777832368 | 20° C | 40% | 1239.7 hPa | 0 mm | - | 743 W/m² | - |
| 1777832065 | 20° C | 38% | 1239.7 hPa | 0 mm | - | 748 W/m² | - |
| 1777831761 | 20° C | 38% | 1239.7 hPa | 0 mm | - | 752 W/m² | - |
| 1777831460 | 20° C | 35% | 1239.7 hPa | 0 mm | - | 758 W/m² | - |
| 1777831156 | 20.56° C | 36% | 1239.7 hPa | 0 mm | - | 759 W/m² | - |
| 1777830855 | 20° C | 36% | 1239.7 hPa | 0 mm | - | 759 W/m² | - |
| 1777830550 | 19.44° C | 37% | 1239.7 hPa | 0 mm | - | 763 W/m² | - |
| 1777830249 | 20° C | 34% | 1239.7 hPa | 0 mm | - | 764 W/m² | - |
| 1777829949 | 19.44° C | 38% | 1239.7 hPa | 0 mm | - | 765 W/m² | - |
| 1777829645 | 18.89° C | 37% | 1239.7 hPa | 0 mm | - | 767 W/m² | - |
* Rain latest hour (hover to see other rain measurements)
** Current wind speed in m/s (hover to see current wind gust speed)